createdAt,value
2018-01-29T00:00:05.760Z,7.70
2018-01-29T00:01:05.731Z,7.60
2018-01-29T00:02:05.218Z,7.60
2018-01-29T00:03:11.358Z,7.70
2018-01-29T00:04:05.771Z,7.70
2018-01-29T00:05:06.235Z,7.70
2018-01-29T00:06:05.946Z,7.60
2018-01-29T00:07:13.488Z,7.60
2018-01-29T00:08:05.843Z,7.70
2018-01-29T00:09:09.079Z,7.60
2018-01-29T00:10:05.829Z,7.60
2018-01-29T00:11:08.345Z,7.60
2018-01-29T00:12:05.377Z,7.60
2018-01-29T00:13:11.352Z,7.60
2018-01-29T00:14:05.806Z,7.60
2018-01-29T00:15:09.060Z,7.70
2018-01-29T00:16:08.657Z,7.60
2018-01-29T00:17:05.142Z,7.60
2018-01-29T00:18:11.093Z,7.60
2018-01-29T00:19:05.750Z,7.70
2018-01-29T00:20:08.002Z,7.60
2018-01-29T00:21:05.396Z,7.70
2018-01-29T00:22:05.221Z,7.60
2018-01-29T00:23:05.278Z,7.70
2018-01-29T00:24:05.321Z,7.60
2018-01-29T00:25:10.251Z,7.70
2018-01-29T00:26:05.933Z,7.60
2018-01-29T00:27:12.730Z,7.70
2018-01-29T00:28:05.187Z,7.70
2018-01-29T00:29:05.682Z,7.70
2018-01-29T00:30:05.893Z,7.70
2018-01-29T00:31:08.308Z,7.70
2018-01-29T00:32:09.475Z,7.70
2018-01-29T00:33:06.258Z,7.70
2018-01-29T00:34:05.986Z,7.70
2018-01-29T00:35:08.722Z,7.70
2018-01-29T00:36:05.701Z,7.70
2018-01-29T00:37:08.757Z,7.70
2018-01-29T00:38:09.044Z,7.70
2018-01-29T00:39:05.771Z,7.70
2018-01-29T00:40:10.700Z,7.70
2018-01-29T00:41:08.032Z,7.70
2018-01-29T00:42:06.367Z,7.70
2018-01-29T00:43:05.818Z,7.70
2018-01-29T00:44:09.179Z,7.70
2018-01-29T00:45:08.320Z,7.70
2018-01-29T00:46:05.829Z,7.70
2018-01-29T00:47:08.049Z,7.70
2018-01-29T00:48:09.546Z,7.70
2018-01-29T00:49:12.913Z,7.70
2018-01-29T00:50:05.394Z,7.70
2018-01-29T00:51:05.242Z,7.70
2018-01-29T00:52:05.503Z,7.70
2018-01-29T00:53:09.065Z,7.70
2018-01-29T00:54:10.303Z,7.70
2018-01-29T00:55:05.719Z,7.70
2018-01-29T00:56:08.804Z,7.70
2018-01-29T00:57:09.084Z,7.70
2018-01-29T00:58:09.108Z,7.70
2018-01-29T00:59:05.783Z,7.70
2018-01-29T01:00:05.870Z,7.70
2018-01-29T01:01:05.588Z,7.70
2018-01-29T01:02:05.494Z,7.70
2018-01-29T01:03:06.106Z,7.70
2018-01-29T01:04:05.490Z,7.70
2018-01-29T01:05:05.258Z,7.70
2018-01-29T01:06:05.235Z,7.70
2018-01-29T01:07:11.055Z,7.70
2018-01-29T01:08:05.636Z,7.70
2018-01-29T01:09:05.259Z,7.70
2018-01-29T01:10:05.370Z,7.70
2018-01-29T01:11:05.512Z,7.70
2018-01-29T01:12:09.155Z,7.70
2018-01-29T01:13:05.819Z,7.70
2018-01-29T01:14:05.671Z,7.70
2018-01-29T01:15:05.731Z,7.70
2018-01-29T01:16:05.315Z,7.80
2018-01-29T01:17:05.646Z,7.70
2018-01-29T01:18:05.253Z,7.80
2018-01-29T01:19:11.013Z,7.70
2018-01-29T01:20:08.032Z,7.80
2018-01-29T01:21:05.634Z,7.70
2018-01-29T01:22:05.205Z,7.80
2018-01-29T01:23:06.013Z,7.80
2018-01-29T01:24:05.772Z,7.70
2018-01-29T01:25:05.597Z,7.80
2018-01-29T01:26:05.238Z,7.70
2018-01-29T01:27:06.093Z,7.70
2018-01-29T01:28:09.181Z,7.70
2018-01-29T01:29:06.040Z,7.70
2018-01-29T01:30:05.583Z,7.80
2018-01-29T01:31:05.138Z,7.80
2018-01-29T01:32:10.706Z,7.70
2018-01-29T01:33:05.569Z,7.80
2018-01-29T01:34:10.706Z,7.70
2018-01-29T01:35:10.629Z,7.80
2018-01-29T01:36:05.438Z,7.80
2018-01-29T01:37:06.031Z,7.80
2018-01-29T01:38:05.462Z,7.80
2018-01-29T01:39:11.377Z,7.80
2018-01-29T01:40:06.070Z,7.80
2018-01-29T01:41:11.407Z,7.80
2018-01-29T01:42:05.907Z,7.80
2018-01-29T01:43:06.000Z,7.80
2018-01-29T01:44:05.588Z,7.80
2018-01-29T01:45:05.461Z,7.80
2018-01-29T01:46:08.762Z,7.80
2018-01-29T01:47:05.741Z,7.80
2018-01-29T01:48:10.711Z,7.80
2018-01-29T01:49:05.337Z,7.80
2018-01-29T01:50:06.125Z,7.80
2018-01-29T01:51:05.718Z,7.80
2018-01-29T01:52:05.949Z,7.80
2018-01-29T01:53:05.879Z,7.80
2018-01-29T01:54:05.278Z,7.80
2018-01-29T01:55:05.484Z,7.80
2018-01-29T01:56:05.445Z,7.80
2018-01-29T01:57:06.206Z,7.80
2018-01-29T01:58:05.652Z,7.80
2018-01-29T01:59:06.049Z,7.80
2018-01-29T02:00:05.940Z,7.80
2018-01-29T02:01:05.488Z,7.80
2018-01-29T02:02:05.427Z,7.80
2018-01-29T02:03:05.169Z,7.80
2018-01-29T02:04:06.010Z,7.80
2018-01-29T02:05:05.535Z,7.80
2018-01-29T02:06:06.024Z,7.80
2018-01-29T02:07:05.570Z,7.80
2018-01-29T02:08:17.554Z,7.80
2018-01-29T02:09:09.244Z,7.80
2018-01-29T02:10:08.777Z,7.80
2018-01-29T02:11:05.467Z,7.80
2018-01-29T02:12:05.368Z,7.80
2018-01-29T02:13:11.202Z,7.80
2018-01-29T02:14:09.156Z,7.80
2018-01-29T02:15:06.357Z,7.80
2018-01-29T02:16:09.135Z,7.80
2018-01-29T02:17:05.472Z,7.80
2018-01-29T02:18:06.084Z,7.80
2018-01-29T02:19:05.906Z,7.80
2018-01-29T02:20:05.949Z,7.80
2018-01-29T02:21:09.237Z,7.90
2018-01-29T02:22:05.976Z,7.80
2018-01-29T02:23:13.146Z,7.80
2018-01-29T02:24:05.586Z,7.80
2018-01-29T02:25:05.943Z,7.80
2018-01-29T02:26:05.662Z,7.80
2018-01-29T02:27:06.401Z,7.80
2018-01-29T02:28:05.252Z,7.80
2018-01-29T02:29:05.916Z,7.80
2018-01-29T02:30:05.848Z,7.80
2018-01-29T02:31:09.135Z,7.80
2018-01-29T02:32:11.139Z,7.80
2018-01-29T02:33:05.629Z,7.80
2018-01-29T02:34:10.680Z,7.80
2018-01-29T02:35:05.480Z,7.80
2018-01-29T02:36:06.048Z,7.80
2018-01-29T02:37:09.268Z,7.80
2018-01-29T02:38:05.258Z,7.80
2018-01-29T02:39:05.819Z,7.90
2018-01-29T02:40:08.819Z,7.90
2018-01-29T02:41:05.287Z,7.80
2018-01-29T02:42:05.886Z,7.80
2018-01-29T02:43:10.686Z,7.80
2018-01-29T02:44:05.599Z,7.80
2018-01-29T02:45:06.041Z,7.90
2018-01-29T02:46:13.460Z,7.80
2018-01-29T02:47:05.893Z,7.90
2018-01-29T02:48:06.043Z,7.90
2018-01-29T02:49:13.321Z,7.90
2018-01-29T02:50:05.847Z,7.90
2018-01-29T02:51:10.416Z,7.90
2018-01-29T02:52:05.978Z,7.90
2018-01-29T02:53:09.292Z,7.90
2018-01-29T02:54:05.695Z,7.90
2018-01-29T02:55:05.361Z,7.90
2018-01-29T02:56:11.137Z,7.90
2018-01-29T02:57:05.779Z,7.90
2018-01-29T02:58:05.350Z,7.90
2018-01-29T02:59:08.533Z,7.90
2018-01-29T03:00:05.378Z,7.90
2018-01-29T03:01:08.753Z,7.90
2018-01-29T03:02:05.371Z,7.90
2018-01-29T03:03:05.960Z,7.90
2018-01-29T03:04:11.262Z,7.90
2018-01-29T03:05:05.957Z,7.90
2018-01-29T03:06:05.871Z,7.90
2018-01-29T03:07:06.116Z,7.90
2018-01-29T03:08:06.227Z,7.90
2018-01-29T03:09:06.088Z,7.90
2018-01-29T03:10:05.771Z,7.90
2018-01-29T03:11:14.907Z,7.90
2018-01-29T03:12:05.414Z,7.90
2018-01-29T03:13:05.519Z,7.90
2018-01-29T03:14:11.377Z,7.90
2018-01-29T03:15:06.051Z,7.90
2018-01-29T03:16:10.705Z,7.90
2018-01-29T03:17:08.860Z,7.90
2018-01-29T03:18:11.231Z,7.90
2018-01-29T03:19:05.843Z,7.90
2018-01-29T03:20:05.636Z,7.90
2018-01-29T03:21:05.195Z,7.90
2018-01-29T03:22:11.512Z,7.80
2018-01-29T03:23:05.983Z,7.90
2018-01-29T03:24:08.454Z,7.90
2018-01-29T03:25:05.561Z,7.90
2018-01-29T03:26:08.834Z,7.90
2018-01-29T03:27:08.797Z,7.90
2018-01-29T03:28:05.497Z,7.90
2018-01-29T03:29:11.582Z,7.80
2018-01-29T03:30:16.217Z,7.90
2018-01-29T03:31:08.495Z,7.90
2018-01-29T03:32:10.481Z,7.80
2018-01-29T03:33:05.201Z,7.80
2018-01-29T03:34:08.478Z,7.80
2018-01-29T03:35:10.802Z,7.80
2018-01-29T03:36:05.497Z,7.80
2018-01-29T03:37:06.289Z,7.80
2018-01-29T03:38:08.843Z,7.80
2018-01-29T03:39:05.877Z,7.80
2018-01-29T03:40:05.895Z,7.80
2018-01-29T03:41:05.718Z,7.80
2018-01-29T03:42:09.326Z,7.80
2018-01-29T03:43:10.831Z,7.80
2018-01-29T03:44:05.410Z,7.80
2018-01-29T03:45:05.205Z,7.80
2018-01-29T03:46:09.221Z,7.80
2018-01-29T03:47:05.835Z,7.80
2018-01-29T03:48:10.785Z,7.80
2018-01-29T03:49:05.671Z,7.80
2018-01-29T03:50:08.540Z,7.80
2018-01-29T03:51:05.937Z,7.80
2018-01-29T03:52:06.003Z,7.80
2018-01-29T03:53:08.517Z,7.80
2018-01-29T03:54:08.845Z,7.80
2018-01-29T03:55:11.172Z,7.80
2018-01-29T03:56:08.910Z,7.80
2018-01-29T03:57:10.815Z,7.80
2018-01-29T03:58:05.661Z,7.80
2018-01-29T03:59:11.544Z,7.90
2018-01-29T04:00:09.234Z,7.80
2018-01-29T04:01:09.327Z,7.80
2018-01-29T04:02:05.503Z,7.80
2018-01-29T04:03:05.221Z,7.80
2018-01-29T04:04:10.953Z,7.80
2018-01-29T04:05:08.954Z,7.80
2018-01-29T04:06:06.086Z,7.80
2018-01-29T04:07:05.715Z,7.80
2018-01-29T04:08:06.118Z,7.80
2018-01-29T04:09:05.420Z,7.80
2018-01-29T04:10:05.435Z,7.80
2018-01-29T04:11:09.650Z,7.80
2018-01-29T04:12:05.261Z,7.80
2018-01-29T04:13:05.361Z,7.80
2018-01-29T04:14:09.648Z,7.80
2018-01-29T04:15:05.520Z,7.80
2018-01-29T04:16:11.247Z,7.80
2018-01-29T04:17:10.096Z,7.80
2018-01-29T04:18:05.862Z,7.80
2018-01-29T04:19:06.196Z,7.80
2018-01-29T04:20:08.504Z,7.80
2018-01-29T04:21:11.215Z,7.80
2018-01-29T04:22:11.263Z,7.80
2018-01-29T04:23:05.883Z,7.80
2018-01-29T04:24:08.593Z,7.80
2018-01-29T04:25:10.791Z,7.80
2018-01-29T04:26:05.699Z,7.80
2018-01-29T04:27:10.517Z,7.80
2018-01-29T04:28:12.906Z,7.80
2018-01-29T04:29:05.307Z,7.80
2018-01-29T04:30:06.072Z,7.80
2018-01-29T04:31:10.890Z,7.80
2018-01-29T04:32:10.476Z,7.80
2018-01-29T04:33:05.215Z,7.80
2018-01-29T04:34:05.875Z,7.80
2018-01-29T04:35:05.742Z,7.80
2018-01-29T04:36:06.173Z,7.80
2018-01-29T04:37:09.739Z,7.80
2018-01-29T04:38:11.243Z,7.80
2018-01-29T04:39:07.052Z,7.80
2018-01-29T04:40:05.930Z,7.80
2018-01-29T04:41:08.565Z,7.80
2018-01-29T04:42:05.372Z,7.80
2018-01-29T04:43:10.905Z,7.80
2018-01-29T04:44:09.301Z,7.80
2018-01-29T04:45:09.649Z,7.80
2018-01-29T04:46:05.909Z,7.80
2018-01-29T04:47:05.441Z,7.80
2018-01-29T04:48:05.361Z,7.80
2018-01-29T04:49:06.020Z,7.80
2018-01-29T04:50:05.591Z,7.80
2018-01-29T04:51:10.509Z,7.80
2018-01-29T04:52:10.502Z,7.80
2018-01-29T04:53:11.819Z,7.80
2018-01-29T04:54:05.453Z,7.80
2018-01-29T04:55:11.242Z,7.70
2018-01-29T04:56:05.993Z,7.80
2018-01-29T04:57:05.549Z,7.80
2018-01-29T04:58:05.298Z,7.80
2018-01-29T04:59:05.733Z,7.80
2018-01-29T05:00:08.519Z,7.70
2018-01-29T05:01:06.105Z,7.80
2018-01-29T05:02:05.924Z,7.80
2018-01-29T05:03:08.985Z,7.70
2018-01-29T05:04:11.588Z,7.80
2018-01-29T05:05:06.096Z,7.80
2018-01-29T05:06:05.164Z,7.80
2018-01-29T05:07:05.754Z,7.70
2018-01-29T05:08:05.329Z,7.80
2018-01-29T05:09:06.090Z,7.70
2018-01-29T05:10:06.075Z,7.80
2018-01-29T05:11:05.919Z,7.70
2018-01-29T05:12:08.564Z,7.70
2018-01-29T05:13:09.377Z,7.70
2018-01-29T05:14:06.084Z,7.70
2018-01-29T05:15:06.091Z,7.70
2018-01-29T05:16:05.703Z,7.70
2018-01-29T05:17:13.023Z,7.70
2018-01-29T05:18:05.480Z,7.70
2018-01-29T05:19:06.037Z,7.70
2018-01-29T05:20:05.815Z,7.70
2018-01-29T05:21:05.676Z,7.80
2018-01-29T05:22:06.066Z,7.80
2018-01-29T05:23:10.924Z,7.70
2018-01-29T05:24:05.936Z,7.80
2018-01-29T05:25:18.532Z,7.70
2018-01-29T05:26:05.245Z,7.70
2018-01-29T05:27:05.558Z,7.70
2018-01-29T05:28:06.020Z,7.80
2018-01-29T05:29:05.740Z,7.70
2018-01-29T05:30:05.760Z,7.70
2018-01-29T05:31:08.165Z,7.70
2018-01-29T05:32:05.227Z,7.70
2018-01-29T05:33:05.979Z,7.70
2018-01-29T05:34:05.439Z,7.70
2018-01-29T05:35:05.473Z,7.70
2018-01-29T05:36:06.024Z,7.70
2018-01-29T05:37:05.440Z,7.70
2018-01-29T05:38:05.560Z,7.70
2018-01-29T05:39:08.258Z,7.70
2018-01-29T05:40:05.846Z,7.70
2018-01-29T05:41:10.916Z,7.70
2018-01-29T05:42:08.929Z,7.70
2018-01-29T05:43:10.926Z,7.70
2018-01-29T05:44:06.214Z,7.70
2018-01-29T05:45:05.765Z,7.70
2018-01-29T05:46:10.842Z,7.70
2018-01-29T05:47:05.452Z,7.70
2018-01-29T05:48:05.642Z,7.70
2018-01-29T05:49:05.706Z,7.70
2018-01-29T05:50:05.213Z,7.70
2018-01-29T05:51:05.303Z,7.70
2018-01-29T05:52:05.982Z,7.70
2018-01-29T05:53:08.665Z,7.70
2018-01-29T05:54:05.678Z,7.70
2018-01-29T05:55:08.959Z,7.70
2018-01-29T05:56:05.468Z,7.70
2018-01-29T05:57:05.540Z,7.70
2018-01-29T05:58:05.233Z,7.70
2018-01-29T05:59:05.282Z,7.70
2018-01-29T06:00:08.616Z,7.70
2018-01-29T06:01:09.359Z,7.70
2018-01-29T06:02:05.096Z,7.70
2018-01-29T06:03:05.847Z,7.70
2018-01-29T06:04:05.584Z,7.70
2018-01-29T06:05:05.498Z,7.70
2018-01-29T06:06:09.072Z,7.70
2018-01-29T06:07:05.665Z,7.70
2018-01-29T06:08:06.013Z,7.70
2018-01-29T06:09:09.017Z,7.70
2018-01-29T06:10:08.297Z,7.70
2018-01-29T06:11:05.830Z,7.70
2018-01-29T06:12:10.910Z,7.70
2018-01-29T06:13:05.595Z,7.60
2018-01-29T06:14:05.418Z,7.60
2018-01-29T06:15:09.383Z,7.60
2018-01-29T06:16:06.017Z,7.60
2018-01-29T06:17:05.685Z,7.60
2018-01-29T06:18:05.288Z,7.60
2018-01-29T06:19:06.018Z,7.60
2018-01-29T06:20:05.859Z,7.60
2018-01-29T06:21:05.436Z,7.60
2018-01-29T06:22:06.226Z,7.60
2018-01-29T06:23:08.583Z,7.50
2018-01-29T06:24:05.411Z,7.50
2018-01-29T06:25:08.684Z,7.50
2018-01-29T06:26:08.567Z,7.50
2018-01-29T06:27:05.111Z,7.50
2018-01-29T06:28:06.041Z,7.50
2018-01-29T06:29:09.026Z,7.50
2018-01-29T06:30:06.593Z,7.50
2018-01-29T06:31:10.230Z,7.50
2018-01-29T06:32:06.649Z,7.50
2018-01-29T06:33:05.395Z,7.50
2018-01-29T06:34:10.690Z,7.50
2018-01-29T06:35:05.439Z,7.50
2018-01-29T06:36:05.296Z,7.40
2018-01-29T06:37:06.008Z,7.40
2018-01-29T06:38:05.631Z,7.50
2018-01-29T06:39:05.451Z,7.50
2018-01-29T06:40:05.286Z,7.50
2018-01-29T06:41:11.633Z,7.50
2018-01-29T06:42:11.292Z,7.50
2018-01-29T06:43:05.823Z,7.40
2018-01-29T06:44:07.935Z,7.40
2018-01-29T06:45:08.983Z,7.40
2018-01-29T06:46:13.211Z,7.40
2018-01-29T06:47:13.949Z,7.40
2018-01-29T06:48:10.592Z,7.40
2018-01-29T06:49:09.061Z,7.40
2018-01-29T06:50:06.077Z,7.40
2018-01-29T06:51:05.723Z,7.40
2018-01-29T06:52:08.304Z,7.40
2018-01-29T06:53:08.690Z,7.40
2018-01-29T06:54:05.177Z,7.40
2018-01-29T06:55:07.927Z,7.40
2018-01-29T06:56:10.671Z,7.40
2018-01-29T06:57:08.995Z,7.40
2018-01-29T06:58:05.497Z,7.40
2018-01-29T06:59:05.613Z,7.40
2018-01-29T07:00:05.406Z,7.30
2018-01-29T07:01:07.893Z,7.30
2018-01-29T07:02:10.956Z,7.30
2018-01-29T07:03:05.858Z,7.30
2018-01-29T07:04:05.957Z,7.40
2018-01-29T07:05:05.487Z,7.30
2018-01-29T07:06:05.518Z,7.30
2018-01-29T07:07:18.281Z,7.30
2018-01-29T07:08:11.005Z,7.30
2018-01-29T07:09:05.715Z,7.40
2018-01-29T07:10:05.299Z,7.30
2018-01-29T07:11:08.656Z,7.30
2018-01-29T07:12:05.250Z,7.30
2018-01-29T07:13:06.160Z,7.30
2018-01-29T07:14:06.027Z,7.30
2018-01-29T07:15:05.462Z,7.30
2018-01-29T07:16:08.437Z,7.30
2018-01-29T07:17:05.597Z,7.30
2018-01-29T07:18:05.334Z,7.30
2018-01-29T07:19:05.886Z,7.30
2018-01-29T07:20:10.640Z,7.30
2018-01-29T07:21:10.607Z,7.30
2018-01-29T07:22:05.218Z,7.30
2018-01-29T07:23:05.719Z,7.40
2018-01-29T07:24:05.636Z,7.30
2018-01-29T07:25:05.711Z,7.30
2018-01-29T07:26:07.951Z,7.30
2018-01-29T07:27:05.597Z,7.30
2018-01-29T07:28:05.980Z,7.40
2018-01-29T07:29:05.678Z,7.30
2018-01-29T07:30:05.208Z,7.30
2018-01-29T07:31:05.167Z,7.30
2018-01-29T07:32:08.662Z,7.40
2018-01-29T07:33:10.593Z,7.40
2018-01-29T07:34:05.215Z,7.40
2018-01-29T07:35:09.405Z,7.50
2018-01-29T07:36:05.352Z,7.40
2018-01-29T07:37:10.632Z,7.40
2018-01-29T07:38:08.769Z,7.50
2018-01-29T07:39:10.936Z,7.50
2018-01-29T07:40:08.335Z,7.50
2018-01-29T07:41:11.416Z,7.60
2018-01-29T07:42:11.345Z,7.60
2018-01-29T07:43:11.414Z,7.60
2018-01-29T07:44:11.383Z,7.70
2018-01-29T07:45:06.322Z,7.60
2018-01-29T07:46:05.958Z,7.70
2018-01-29T07:47:05.510Z,7.70
2018-01-29T07:48:10.620Z,7.70
2018-01-29T07:49:08.305Z,7.70
2018-01-29T07:50:05.932Z,7.70
2018-01-29T07:51:13.124Z,7.80
2018-01-29T07:52:05.532Z,7.80
2018-01-29T07:53:05.426Z,7.80
2018-01-29T07:54:11.347Z,7.80
2018-01-29T07:55:11.017Z,7.80
2018-01-29T07:56:05.893Z,7.80
2018-01-29T07:57:13.151Z,7.90
2018-01-29T07:58:10.985Z,7.90
2018-01-29T07:59:09.149Z,7.90
2018-01-29T08:00:08.720Z,7.90
2018-01-29T08:01:10.584Z,8.00
2018-01-29T08:02:06.157Z,8.00
2018-01-29T08:03:05.227Z,7.90
2018-01-29T08:04:05.914Z,8.00
2018-01-29T08:05:05.614Z,8.00
2018-01-29T08:06:10.624Z,8.10
2018-01-29T08:07:05.197Z,8.10
2018-01-29T08:08:06.083Z,8.20
2018-01-29T08:09:05.998Z,8.20
2018-01-29T08:10:05.606Z,8.20
2018-01-29T08:11:10.610Z,8.20
2018-01-29T08:12:08.317Z,8.30
2018-01-29T08:13:10.604Z,8.30
2018-01-29T08:14:11.141Z,8.30
2018-01-29T08:15:08.715Z,8.30
2018-01-29T08:16:06.484Z,8.30
2018-01-29T08:17:10.657Z,8.30
2018-01-29T08:18:08.712Z,8.40
2018-01-29T08:19:08.375Z,8.40
2018-01-29T08:20:07.980Z,8.50
2018-01-29T08:21:05.624Z,8.40
2018-01-29T08:22:10.629Z,8.50
2018-01-29T08:23:05.190Z,8.50
2018-01-29T08:24:05.994Z,8.50
2018-01-29T08:25:09.608Z,8.50
2018-01-29T08:26:05.803Z,8.50
2018-01-29T08:27:13.301Z,8.50
2018-01-29T08:28:05.782Z,8.50
2018-01-29T08:29:05.562Z,8.50
2018-01-29T08:30:05.550Z,8.50
2018-01-29T08:31:05.402Z,8.50
2018-01-29T08:32:10.631Z,8.60
2018-01-29T08:33:08.786Z,8.60
2018-01-29T08:34:08.389Z,8.60
2018-01-29T08:35:06.051Z,8.60
2018-01-29T08:36:05.454Z,8.60
2018-01-29T08:37:05.311Z,8.60
2018-01-29T08:38:05.236Z,8.70
2018-01-29T08:39:10.615Z,8.70
2018-01-29T08:40:10.651Z,8.70
2018-01-29T08:41:05.448Z,8.70
2018-01-29T08:42:10.651Z,8.70
2018-01-29T08:43:10.619Z,8.70
2018-01-29T08:44:05.340Z,8.80
2018-01-29T08:45:08.312Z,8.80
2018-01-29T08:46:05.334Z,8.90
2018-01-29T08:47:08.108Z,8.90
2018-01-29T08:48:09.476Z,8.90
2018-01-29T08:49:09.197Z,9.00
2018-01-29T08:50:08.851Z,9.00
2018-01-29T08:51:05.599Z,9.00
2018-01-29T08:52:10.656Z,9.00
2018-01-29T08:53:05.176Z,9.10
2018-01-29T08:54:06.173Z,9.10
2018-01-29T08:55:11.061Z,9.10
2018-01-29T08:56:05.584Z,9.20
2018-01-29T08:57:05.890Z,9.20
2018-01-29T08:58:05.738Z,9.20
2018-01-29T08:59:11.049Z,9.30
2018-01-29T09:00:05.784Z,9.30
2018-01-29T09:01:08.743Z,9.30
2018-01-29T09:02:05.480Z,9.30
2018-01-29T09:03:05.743Z,9.30
2018-01-29T09:04:15.537Z,9.30
2018-01-29T09:05:06.058Z,9.30
2018-01-29T09:06:09.578Z,9.30
2018-01-29T09:07:13.500Z,9.40
2018-01-29T09:08:08.746Z,9.40
2018-01-29T09:09:09.904Z,9.40
2018-01-29T09:10:05.185Z,9.30
2018-01-29T09:11:06.820Z,9.30
2018-01-29T09:12:09.174Z,9.40
2018-01-29T09:13:05.818Z,9.30
2018-01-29T09:14:11.041Z,9.30
2018-01-29T09:15:05.505Z,9.40
2018-01-29T09:16:11.171Z,9.40
2018-01-29T09:17:05.948Z,9.40
2018-01-29T09:18:05.786Z,9.40
2018-01-29T09:19:05.995Z,9.40
2018-01-29T09:20:05.228Z,9.40
2018-01-29T09:21:09.536Z,9.40
2018-01-29T09:22:11.427Z,9.30
2018-01-29T09:23:06.044Z,9.30
2018-01-29T09:24:08.805Z,9.30
2018-01-29T09:25:10.708Z,9.30
2018-01-29T09:26:05.276Z,9.30
2018-01-29T09:27:11.454Z,9.30
2018-01-29T09:28:05.610Z,9.30
2018-01-29T09:29:10.630Z,9.30
2018-01-29T09:30:05.531Z,9.30
2018-01-29T09:31:05.153Z,9.30
2018-01-29T09:32:05.973Z,9.20
2018-01-29T09:33:09.590Z,9.20
2018-01-29T09:34:05.333Z,9.20
2018-01-29T09:35:05.232Z,9.20
2018-01-29T09:36:09.561Z,9.20
2018-01-29T09:37:05.939Z,9.20
2018-01-29T09:38:05.958Z,9.20
2018-01-29T09:39:11.069Z,9.20
2018-01-29T09:40:11.146Z,9.10
2018-01-29T09:41:05.833Z,9.20
2018-01-29T09:42:05.235Z,9.20
2018-01-29T09:43:11.070Z,9.20
2018-01-29T09:44:05.559Z,9.10
2018-01-29T09:45:08.542Z,9.10
2018-01-29T09:46:10.716Z,9.20
2018-01-29T09:47:05.326Z,9.20
2018-01-29T09:48:11.160Z,9.20
2018-01-29T09:49:05.941Z,9.20
2018-01-29T09:50:11.081Z,9.20
2018-01-29T09:51:05.768Z,9.20
2018-01-29T09:52:05.670Z,9.20
2018-01-29T09:53:05.988Z,9.30
2018-01-29T09:54:05.717Z,9.30
2018-01-29T09:55:05.450Z,9.30
2018-01-29T09:56:09.229Z,9.30
2018-01-29T09:57:06.159Z,9.30
2018-01-29T09:58:05.770Z,9.30
2018-01-29T09:59:05.513Z,9.30
2018-01-29T10:00:10.397Z,9.30
2018-01-29T10:01:05.100Z,9.30
2018-01-29T10:02:05.955Z,9.40
2018-01-29T10:03:08.490Z,9.50
2018-01-29T10:04:05.553Z,9.50
2018-01-29T10:05:13.253Z,9.50
2018-01-29T10:06:05.795Z,9.50
2018-01-29T10:07:11.111Z,9.60
2018-01-29T10:08:06.796Z,9.60
2018-01-29T10:09:05.973Z,9.70
2018-01-29T10:10:13.259Z,9.70
2018-01-29T10:11:06.094Z,9.70
2018-01-29T10:12:05.635Z,9.70
2018-01-29T10:13:10.667Z,9.80
2018-01-29T10:14:05.781Z,9.80
2018-01-29T10:15:08.835Z,9.80
2018-01-29T10:16:05.870Z,9.80
2018-01-29T10:17:06.166Z,9.70
2018-01-29T10:18:05.295Z,9.70
2018-01-29T10:19:05.336Z,9.70
2018-01-29T10:20:11.503Z,9.70
2018-01-29T10:21:05.353Z,9.70
2018-01-29T10:22:05.798Z,9.70
2018-01-29T10:23:12.811Z,9.60
2018-01-29T10:24:05.189Z,9.60
2018-01-29T10:25:06.000Z,9.60
2018-01-29T10:26:10.367Z,9.50
2018-01-29T10:27:06.097Z,9.50
2018-01-29T10:28:09.981Z,9.50
2018-01-29T10:29:05.945Z,9.50
2018-01-29T10:30:05.825Z,9.50
2018-01-29T10:31:05.591Z,9.50
2018-01-29T10:32:05.460Z,9.50
2018-01-29T10:33:05.648Z,9.50
2018-01-29T10:34:08.043Z,9.40
2018-01-29T10:35:08.876Z,9.40
2018-01-29T10:36:10.817Z,9.40
2018-01-29T10:37:10.819Z,9.40
2018-01-29T10:38:05.585Z,9.40
2018-01-29T10:39:07.638Z,9.50
2018-01-29T10:40:15.350Z,9.40
2018-01-29T10:41:05.683Z,9.40
2018-01-29T10:42:05.998Z,9.40
2018-01-29T10:43:05.672Z,9.50
2018-01-29T10:44:05.327Z,9.50
2018-01-29T10:45:08.803Z,9.50
2018-01-29T10:46:11.091Z,9.50
2018-01-29T10:47:05.653Z,9.50
2018-01-29T10:48:06.123Z,9.50
2018-01-29T10:49:05.591Z,9.60
2018-01-29T10:50:08.074Z,9.70
2018-01-29T10:51:05.929Z,9.70
2018-01-29T10:52:05.480Z,9.70
2018-01-29T10:53:05.242Z,9.80
2018-01-29T10:54:09.669Z,9.90
2018-01-29T10:55:05.882Z,9.90
2018-01-29T10:56:08.817Z,10.00
2018-01-29T10:57:05.478Z,10.00
2018-01-29T10:58:05.926Z,10.10
2018-01-29T10:59:10.909Z,10.20
2018-01-29T11:00:05.620Z,10.20
2018-01-29T11:01:05.691Z,10.20
2018-01-29T11:02:05.982Z,10.20
2018-01-29T11:03:09.598Z,10.30
2018-01-29T11:04:06.096Z,10.30
2018-01-29T11:05:10.419Z,10.30
2018-01-29T11:06:05.188Z,10.30
2018-01-29T11:07:05.595Z,10.40
2018-01-29T11:08:10.472Z,10.40
2018-01-29T11:09:11.127Z,10.40
2018-01-29T11:10:05.836Z,10.40
2018-01-29T11:11:10.811Z,10.40
2018-01-29T11:12:05.885Z,10.50
2018-01-29T11:13:06.093Z,10.50
2018-01-29T11:14:06.080Z,10.60
2018-01-29T11:15:05.944Z,10.60
2018-01-29T11:16:05.827Z,10.60
2018-01-29T11:17:05.510Z,10.60
2018-01-29T11:18:05.335Z,10.60
2018-01-29T11:19:10.786Z,10.70
2018-01-29T11:20:08.164Z,10.70
2018-01-29T11:21:11.173Z,10.70
2018-01-29T11:22:05.990Z,10.70
2018-01-29T11:23:05.310Z,10.70
2018-01-29T11:24:09.772Z,10.70
2018-01-29T11:25:05.618Z,10.70
2018-01-29T11:26:11.640Z,10.80
2018-01-29T11:27:05.563Z,10.80
2018-01-29T11:28:05.546Z,10.80
2018-01-29T11:29:09.332Z,10.90
2018-01-29T11:30:07.075Z,10.90
2018-01-29T11:31:05.441Z,10.90
2018-01-29T11:32:06.024Z,10.90
2018-01-29T11:33:06.402Z,10.90
2018-01-29T11:34:08.196Z,11.00
2018-01-29T11:35:05.424Z,11.00
2018-01-29T11:36:06.352Z,11.00
2018-01-29T11:37:09.345Z,10.90
2018-01-29T11:38:08.125Z,10.90
2018-01-29T11:39:05.776Z,10.90
2018-01-29T11:40:05.853Z,10.90
2018-01-29T11:41:06.398Z,10.80
2018-01-29T11:42:06.096Z,10.80
2018-01-29T11:43:11.210Z,10.80
2018-01-29T11:44:05.859Z,10.80
2018-01-29T11:45:06.563Z,10.80
2018-01-29T11:46:05.707Z,10.80
2018-01-29T11:47:06.002Z,10.80
2018-01-29T11:48:12.134Z,10.80
2018-01-29T11:49:05.892Z,10.80
2018-01-29T11:50:05.400Z,10.80
2018-01-29T11:51:10.489Z,10.80
2018-01-29T11:52:05.512Z,10.70
2018-01-29T11:53:05.459Z,10.80
2018-01-29T11:54:06.356Z,10.80
2018-01-29T11:55:05.557Z,10.80
2018-01-29T11:56:10.845Z,10.80
2018-01-29T11:57:05.532Z,10.80
2018-01-29T11:58:05.101Z,10.90
2018-01-29T11:59:09.344Z,10.90
2018-01-29T12:00:15.358Z,10.90
2018-01-29T12:01:06.585Z,10.90
2018-01-29T12:02:10.542Z,10.90
2018-01-29T12:03:06.388Z,10.90
2018-01-29T12:04:08.540Z,10.80
2018-01-29T12:05:09.995Z,10.80
2018-01-29T12:06:08.981Z,10.80
2018-01-29T12:07:05.774Z,10.80
2018-01-29T12:08:11.219Z,10.80
2018-01-29T12:09:10.496Z,10.80
2018-01-29T12:10:08.216Z,10.70
2018-01-29T12:11:05.862Z,10.80
2018-01-29T12:12:06.080Z,10.70
2018-01-29T12:13:05.809Z,10.70
2018-01-29T12:14:06.389Z,10.80
2018-01-29T12:15:05.534Z,10.70
2018-01-29T12:16:08.168Z,10.70
2018-01-29T12:17:10.996Z,10.70
2018-01-29T12:18:05.867Z,10.70
2018-01-29T12:19:06.105Z,10.70
2018-01-29T12:20:11.187Z,10.70
2018-01-29T12:21:09.785Z,10.80
2018-01-29T12:22:05.486Z,10.70
2018-01-29T12:23:08.894Z,10.70
2018-01-29T12:24:09.245Z,10.70
2018-01-29T12:25:05.923Z,10.70
2018-01-29T12:26:05.137Z,10.70
2018-01-29T12:27:08.475Z,10.70
2018-01-29T12:28:13.674Z,10.70
2018-01-29T12:29:05.599Z,10.70
2018-01-29T12:30:13.334Z,10.70
2018-01-29T12:31:05.830Z,10.70
2018-01-29T12:32:05.586Z,10.70
2018-01-29T12:33:05.551Z,10.80
2018-01-29T12:34:05.286Z,10.80
2018-01-29T12:35:05.893Z,10.80
2018-01-29T12:36:05.471Z,10.80
2018-01-29T12:37:06.129Z,10.80
2018-01-29T12:38:05.380Z,10.80
2018-01-29T12:39:06.324Z,10.80
2018-01-29T12:40:06.195Z,10.80
2018-01-29T12:41:05.517Z,10.80
2018-01-29T12:42:09.865Z,10.70
2018-01-29T12:43:09.707Z,10.70
2018-01-29T12:44:05.148Z,10.70
2018-01-29T12:45:05.545Z,10.70
2018-01-29T12:46:10.977Z,10.70
2018-01-29T12:47:13.412Z,10.80
2018-01-29T12:48:11.006Z,10.80
2018-01-29T12:49:09.275Z,10.80
2018-01-29T12:50:06.002Z,10.80
2018-01-29T12:51:05.663Z,10.80
2018-01-29T12:52:09.675Z,10.80
2018-01-29T12:53:05.414Z,10.80
2018-01-29T12:54:05.373Z,10.80
2018-01-29T12:55:05.360Z,10.80
2018-01-29T12:56:06.558Z,10.80
2018-01-29T12:57:05.450Z,10.80
2018-01-29T12:58:06.874Z,10.70
2018-01-29T12:59:05.266Z,10.70
2018-01-29T13:00:05.168Z,10.70
2018-01-29T13:01:05.935Z,10.70
2018-01-29T13:02:12.848Z,10.70
2018-01-29T13:03:05.254Z,10.70
2018-01-29T13:04:11.217Z,10.70
2018-01-29T13:05:05.971Z,10.70
2018-01-29T13:06:10.924Z,10.70
2018-01-29T13:07:10.864Z,10.70
2018-01-29T13:08:05.769Z,10.70
2018-01-29T13:09:05.305Z,10.70
2018-01-29T13:10:06.165Z,10.70
2018-01-29T13:11:05.791Z,10.70
2018-01-29T13:12:05.521Z,10.60
2018-01-29T13:13:08.172Z,10.60